Time;durP1;ratioP1;P1;durP2;ratioP2;P2;SDS_P1;SDS_P2;PMS_P1;PMS_P2;Temp;Humidity;BMP_temperature;BMP_pressure;BME280_temperature;BME280_humidity;BME280_pressure;Samples;Min_cycle;Max_cycle;Signal;HPM_P1;HPM_P2
2023/01/18 10:36:04;;;;;;;15.90;6.90;;;12.80;67.70;;;;;;1958533;73;25809;-61
2023/01/18 10:38:35;;;;;;;7.67;4.30;;;13.00;67.90;;;;;;1917792;75;21520;-61
2023/01/18 10:41:04;;;;;;;18.87;5.67;;;13.10;69.10;;;;;;1917410;74;21078;-60
2023/01/18 10:43:33;;;;;;;7.75;4.15;;;13.10;69.20;;;;;;1917812;75;21019;-59
2023/01/18 10:46:02;;;;;;;6.67;4.97;;;13.20;66.10;;;;;;1907436;75;21064;-66
2023/01/18 10:48:33;;;;;;;5.00;4.00;;;13.20;67.20;;;;;;1861644;76;21170;-60
2023/01/18 10:51:05;;;;;;;11.43;5.80;;;13.20;67.30;;;;;;1842606;77;21118;-59
2023/01/18 10:53:37;;;;;;;8.10;4.22;;;13.30;67.80;;;;;;1900055;74;21015;-62
2023/01/18 10:56:17;;;;;;;6.58;4.20;;;13.30;67.60;;;;;;1871652;76;21147;-60
2023/01/18 10:58:48;;;;;;;8.75;4.15;;;13.40;67.00;;;;;;1856639;77;21031;-60
2023/01/18 11:01:35;;;;;;;8.98;4.87;;;13.50;66.20;;;;;;1844616;77;21076;-60
2023/01/18 11:04:26;;;;;;;8.65;5.25;;;13.50;66.00;;;;;;1844463;77;21096;-59
2023/01/18 11:07:00;;;;;;;9.58;4.15;;;13.60;66.20;;;;;;1836860;77;21126;-59
2023/01/18 11:09:44;;;;;;;5.27;4.53;;;13.60;66.00;;;;;;1905570;75;21106;-59
2023/01/18 11:12:33;;;;;;;9.43;5.45;;;13.60;65.50;;;;;;1898834;75;21153;-62
2023/01/18 11:15:17;;;;;;;30.08;17.60;;;13.60;64.90;;;;;;1901376;74;21185;-62
2023/01/18 11:17:59;;;;;;;11.78;7.03;;;13.60;65.50;;;;;;1891799;75;21575;-61
2023/01/18 11:20:48;;;;;;;19.23;11.68;;;13.50;64.50;;;;;;1899038;75;21076;-61
2023/01/18 11:23:20;;;;;;;;;;;13.50;65.10;;;;;;1889603;74;21060;-62
2023/01/18 11:25:57;;;;;;;8.95;6.12;;;13.50;61.60;;;;;;1849345;77;20176;-62
2023/01/18 11:28:41;;;;;;;10.40;6.78;;;13.50;63.80;;;;;;1848490;77;21112;-62
2023/01/18 11:31:16;;;;;;;6.58;4.10;;;13.50;64.80;;;;;;1833217;78;21645;-62
2023/01/18 11:33:59;;;;;;;9.43;5.20;;;13.50;64.00;;;;;;1833852;78;21044;-62
2023/01/18 11:36:45;;;;;;;8.95;4.92;;;13.50;63.80;;;;;;1838171;77;21641;-62
2023/01/18 11:39:31;;;;;;;6.37;4.62;;;13.50;62.90;;;;;;1872843;75;21064;-60
2023/01/18 11:42:25;;;;;;;9.95;5.50;;;13.50;63.20;;;;;;1873541;76;21100;-62
2023/01/18 11:48:10;;;;;;;6.80;4.45;;;13.40;63.60;;;;;;1870491;76;21059;-61
2023/01/18 11:50:44;;;;;;;4.60;3.72;;;13.40;63.00;;;;;;1879391;76;21094;-62
2023/01/18 11:53:16;;;;;;;8.83;4.70;;;13.40;63.20;;;;;;1879459;76;21097;-61
2023/01/18 11:56:04;;;;;;;6.72;4.67;;;13.40;63.60;;;;;;1879155;76;21039;-62
2023/01/18 11:58:29;;;;;;;18.75;6.58;;;13.30;63.20;;;;;;1869500;76;21059;-62
2023/01/18 12:01:20;;;;;;;9.93;4.83;;;13.30;63.50;;;;;;1879370;76;21019;-62
2023/01/18 12:03:58;;;;;;;4.60;3.70;;;13.30;63.40;;;;;;1879471;76;21469;-62
2023/01/18 12:06:48;;;;;;;8.00;5.67;;;13.20;62.20;;;;;;1879432;76;21031;-62
2023/01/18 12:09:38;;;;;;;10.55;5.42;;;13.20;62.60;;;;;;1879329;76;21016;-62
2023/01/18 12:12:11;;;;;;;7.83;4.80;;;13.20;62.60;;;;;;1878700;76;21063;-62
2023/01/18 12:15:06;;;;;;;10.15;4.85;;;13.20;62.80;;;;;;1879114;76;21122;-62
2023/01/18 12:17:55;;;;;;;11.08;6.95;;;13.20;62.80;;;;;;1879224;76;21457;-61
2023/01/18 12:20:39;;;;;;;12.73;5.67;;;13.20;63.30;;;;;;1879289;76;21481;-61
2023/01/18 12:23:21;;;;;;;9.85;4.42;;;13.10;62.80;;;;;;1878596;76;21039;-61
2023/01/18 12:26:11;;;;;;;11.33;7.40;;;13.10;63.40;;;;;;1879218;76;21027;-61
2023/01/18 12:28:58;;;;;;;9.68;5.97;;;13.00;63.40;;;;;;1879350;76;21059;-61
2023/01/18 12:31:35;;;;;;;8.95;5.47;;;13.00;63.80;;;;;;1879369;76;21058;-60
2023/01/18 12:34:19;;;;;;;13.05;6.42;;;12.90;63.30;;;;;;1879603;76;21113;-60
2023/01/18 12:37:06;;;;;;;6.30;4.12;;;12.90;63.70;;;;;;1879559;76;21094;-60
2023/01/18 12:39:55;;;;;;;7.65;4.80;;;12.90;63.30;;;;;;1879468;76;21155;-60
2023/01/18 12:42:33;;;;;;;13.28;7.47;;;12.90;63.40;;;;;;1879458;76;21047;-61
2023/01/18 12:45:13;;;;;;;12.25;5.03;;;12.80;63.60;;;;;;1878888;76;21083;-60
2023/01/18 12:48:02;;;;;;;8.55;5.20;;;12.70;63.30;;;;;;1899290;74;21195;-60
2023/01/18 12:50:38;;;;;;;7.22;5.53;;;12.70;63.50;;;;;;1905261;75;21045;-61
2023/01/18 12:53:26;;;;;;;6.47;4.70;;;12.70;63.50;;;;;;1905292;75;21010;-60
2023/01/18 12:55:58;;;;;;;19.92;10.60;;;12.70;63.60;;;;;;1905325;75;21413;-60
2023/01/18 12:58:27;;;;;;;9.35;5.42;;;12.60;63.70;;;;;;1905285;74;21034;-61
2023/01/18 13:01:04;;;;;;;11.08;5.00;;;12.60;63.80;;;;;;1905277;75;21097;-61
2023/01/18 13:03:36;;;;;;;10.00;5.65;;;12.60;63.70;;;;;;1905358;74;21046;-60
2023/01/18 13:06:05;;;;;;;18.60;10.20;;;12.60;63.80;;;;;;1905456;74;21018;-60
2023/01/18 13:08:56;;;;;;;12.25;7.42;;;12.50;63.70;;;;;;1905634;75;21061;-60
2023/01/18 13:11:27;;;;;;;11.68;7.70;;;12.50;63.70;;;;;;1905438;74;20995;-62
2023/01/18 13:14:06;;;;;;;19.45;6.40;;;12.50;64.00;;;;;;1905078;74;21503;-62
2023/01/18 13:16:43;;;;;;;12.85;7.85;;;12.50;64.10;;;;;;1905526;75;21085;-62
2023/01/18 13:19:19;;;;;;;33.95;19.82;;;12.40;64.10;;;;;;1905400;75;21088;-61
2023/01/18 13:22:19;;;;;;;25.50;11.48;;;12.40;64.40;;;;;;1905461;74;21050;-62
2023/01/18 13:24:54;;;;;;;41.53;16.27;;;12.30;64.60;;;;;;1905504;74;21081;-61
2023/01/18 13:27:23;;;;;;;33.40;14.85;;;12.30;64.80;;;;;;1905635;74;21056;-61
2023/01/18 13:29:53;;;;;;;37.80;15.70;;;12.30;65.00;;;;;;1905511;74;21030;-62
2023/01/18 13:32:30;;;;;;;22.95;11.08;;;12.20;65.00;;;;;;1905277;75;21046;-62
2023/01/18 13:37:58;;;;;;;17.42;9.68;;;12.20;65.10;;;;;;1910381;74;21160;-61
2023/01/18 13:40:39;;;;;;;23.25;11.90;;;12.20;65.30;;;;;;1911796;74;21043;-61
2023/01/18 13:43:31;;;;;;;26.70;10.10;;;12.10;65.30;;;;;;1890508;75;21478;-62
2023/01/18 13:46:10;;;;;;;21.33;8.98;;;12.10;65.40;;;;;;1911726;75;21113;-62
2023/01/18 13:48:57;;;;;;;17.50;9.65;;;12.00;65.20;;;;;;1911791;75;21043;-61
2023/01/18 13:51:48;;;;;;;23.27;7.78;;;12.00;65.30;;;;;;1911725;75;21004;-60
2023/01/18 13:54:23;;;;;;;19.70;8.13;;;11.90;65.10;;;;;;1911877;75;21117;-60
2023/01/18 13:57:08;;;;;;;23.57;9.35;;;11.90;65.50;;;;;;1911865;75;21090;-60
2023/01/18 13:59:40;;;;;;;34.10;14.55;;;11.80;65.60;;;;;;1911915;74;21063;-61
2023/01/18 14:02:23;;;;;;;43.98;18.27;;;11.80;65.70;;;;;;1910653;75;21032;-61
2023/01/18 14:05:18;;;;;;;38.55;16.80;;;11.80;65.80;;;;;;1911625;75;21097;-61
2023/01/18 14:07:50;;;;;;;43.35;20.90;;;11.70;66.00;;;;;;1911904;75;21031;-61
2023/01/18 14:10:31;;;;;;;59.13;24.60;;;11.70;66.20;;;;;;1911607;75;21019;-61
2023/01/18 14:13:03;;;;;;;27.60;12.23;;;11.70;66.60;;;;;;1911739;75;21051;-61
2023/01/18 14:15:40;;;;;;;50.88;23.42;;;11.60;66.80;;;;;;1911669;75;21031;-61
2023/01/18 14:18:24;;;;;;;46.18;18.87;;;11.60;66.90;;;;;;1910936;74;21093;-61
2023/01/18 14:20:56;;;;;;;47.38;15.85;;;11.60;67.20;;;;;;1911757;75;21129;-61
2023/01/18 14:23:28;;;;;;;67.90;28.00;;;11.60;67.30;;;;;;1911674;75;21055;-61
2023/01/18 14:26:08;;;;;;;47.58;15.38;;;11.50;67.50;;;;;;1862825;75;21047;-61
2023/01/18 14:28:55;;;;;;;50.55;21.95;;;11.50;67.70;;;;;;1911334;75;21043;-61
2023/01/18 14:31:33;;;;;;;52.03;20.92;;;11.50;67.90;;;;;;1911611;75;21043;-61
2023/01/18 14:34:31;;;;;;;52.53;23.25;;;11.40;68.00;;;;;;1911660;75;21121;-61
2023/01/18 14:37:00;;;;;;;63.02;28.15;;;11.40;68.20;;;;;;1918180;74;21066;-61
2023/01/18 14:39:32;;;;;;;84.15;26.17;;;11.40;68.40;;;;;;1878292;76;21015;-61
2023/01/18 14:42:05;;;;;;;57.98;24.72;;;11.30;68.70;;;;;;1878357;76;21073;-61
2023/01/18 14:44:49;;;;;;;60.60;24.23;;;11.30;68.80;;;;;;1878331;76;21015;-61
2023/01/18 14:47:20;;;;;;;46.23;15.10;;;11.30;69.00;;;;;;1878311;76;21109;-61
2023/01/18 14:49:49;;;;;;;53.05;21.37;;;11.30;69.00;;;;;;1878351;76;21039;-60
2023/01/18 14:52:19;;;;;;;35.73;17.62;;;11.30;69.00;;;;;;1878280;76;21035;-61
2023/01/18 14:54:50;;;;;;;39.67;18.92;;;11.30;69.10;;;;;;1878303;76;21036;-61
2023/01/18 14:57:20;;;;;;;34.75;14.50;;;11.30;69.00;;;;;;1877529;76;21055;-61
2023/01/18 14:59:55;;;;;;;52.00;22.45;;;11.20;69.20;;;;;;1878266;76;21047;-61
2023/01/18 15:02:28;;;;;;;46.18;26.40;;;11.20;69.30;;;;;;1878456;76;21000;-61
2023/01/18 15:05:16;;;;;;;37.50;18.92;;;11.20;69.60;;;;;;1878284;76;21141;-61
2023/01/18 15:07:48;;;;;;;40.55;18.20;;;11.20;69.80;;;;;;1878342;76;21067;-61
2023/01/18 15:10:18;;;;;;;40.90;19.02;;;11.20;69.70;;;;;;1877595;76;21067;-61
2023/01/18 15:12:50;;;;;;;48.42;22.00;;;11.20;69.70;;;;;;1878244;76;21114;-61
2023/01/18 15:15:22;;;;;;;48.83;23.67;;;11.20;69.80;;;;;;1878255;76;21102;-61
2023/01/18 15:17:51;;;;;;;45.12;23.98;;;11.10;70.00;;;;;;1877886;76;21089;-61
2023/01/18 15:20:20;;;;;;;67.03;22.58;;;11.20;70.30;;;;;;1878329;76;21035;-61
2023/01/18 15:22:50;;;;;;;43.17;22.58;;;11.20;70.60;;;;;;1878223;76;21063;-61
2023/01/18 15:25:22;;;;;;;46.68;22.55;;;11.20;70.60;;;;;;1878361;76;21102;-61
2023/01/18 15:27:52;;;;;;;40.38;21.57;;;11.20;70.60;;;;;;1878237;76;21133;-61
2023/01/18 15:30:23;;;;;;;46.20;21.90;;;11.10;70.70;;;;;;1878317;76;21113;-61
2023/01/18 15:33:00;;;;;;;44.58;21.00;;;11.10;70.90;;;;;;1878369;76;21118;-61
2023/01/18 15:35:29;;;;;;;54.63;23.20;;;11.10;71.00;;;;;;1878526;76;21027;-61
2023/01/18 15:38:01;;;;;;;60.17;24.77;;;11.10;71.20;;;;;;1860881;76;21076;-61
2023/01/18 15:40:30;;;;;;;62.55;24.80;;;11.10;71.30;;;;;;1851953;77;21008;-61
2023/01/18 15:43:08;;;;;;;73.35;26.37;;;11.10;71.50;;;;;;1851976;77;21475;-61
2023/01/18 15:45:42;;;;;;;72.08;25.88;;;11.10;71.40;;;;;;1851844;77;21048;-61
2023/01/18 15:48:16;;;;;;;66.62;26.50;;;11.00;71.50;;;;;;1851825;77;21004;-61
2023/01/18 15:50:51;;;;;;;60.78;24.63;;;11.00;71.70;;;;;;1852014;77;21032;-61
2023/01/18 15:53:28;;;;;;;85.17;28.92;;;10.90;71.80;;;;;;1852081;77;21444;-61
2023/01/18 15:56:09;;;;;;;87.55;26.12;;;10.90;71.60;;;;;;1851912;77;21056;-61
2023/01/18 15:58:44;;;;;;;64.10;23.80;;;10.80;71.50;;;;;;1851065;77;21553;-61
2023/01/18 16:01:16;;;;;;;59.53;23.60;;;10.80;71.50;;;;;;1851852;77;21056;-61
2023/01/18 16:03:57;;;;;;;38.78;21.90;;;10.70;71.80;;;;;;1769676;81;21023;-61
2023/01/18 16:06:31;;;;;;;54.77;26.30;;;10.60;72.20;;;;;;1851759;77;21080;-61
2023/01/18 16:09:14;;;;;;;55.85;23.60;;;10.70;72.50;;;;;;1769456;80;21051;-60
2023/01/18 16:11:55;;;;;;;54.70;22.93;;;10.70;72.70;;;;;;1851860;77;21041;-61
2023/01/18 16:14:32;;;;;;;48.17;22.75;;;10.70;72.40;;;;;;1851919;77;21048;-61
2023/01/18 16:17:19;;;;;;;51.98;24.43;;;10.70;72.60;;;;;;1769487;80;21070;-61
2023/01/18 16:19:54;;;;;;;52.17;22.73;;;10.70;72.70;;;;;;1851899;77;21134;-61
2023/01/18 16:22:31;;;;;;;50.90;21.70;;;10.70;72.90;;;;;;1852102;77;21090;-61
2023/01/18 16:25:10;;;;;;;60.23;22.22;;;10.70;73.00;;;;;;1851857;77;21072;-60
2023/01/18 16:27:53;;;;;;;96.67;28.40;;;10.70;72.90;;;;;;1851850;77;21020;-60
2023/01/18 16:30:37;;;;;;;57.83;25.88;;;10.70;73.00;;;;;;1851835;77;21485;-60
2023/01/18 16:33:17;;;;;;;57.43;20.75;;;10.60;73.00;;;;;;1851864;76;21044;-61
2023/01/18 16:35:48;;;;;;;44.80;21.17;;;10.60;73.00;;;;;;1851870;77;21071;-61
2023/01/18 16:38:22;;;;;;;67.08;24.47;;;10.60;73.20;;;;;;1851879;76;21084;-61
2023/01/18 16:40:51;;;;;;;70.62;25.43;;;10.60;73.50;;;;;;1852033;76;21044;-61
2023/01/18 16:43:31;;;;;;;66.50;25.82;;;10.60;73.70;;;;;;1851879;77;21122;-61
2023/01/18 16:46:03;;;;;;;51.75;23.50;;;10.60;73.80;;;;;;1851835;77;21052;-61
2023/01/18 16:48:32;;;;;;;58.92;23.05;;;10.60;74.00;;;;;;1851851;77;21012;-61
2023/01/18 16:51:01;;;;;;;62.78;23.80;;;10.60;74.10;;;;;;1851853;76;21032;-61
2023/01/18 16:53:31;;;;;;;55.95;22.30;;;10.60;74.30;;;;;;1851959;76;21016;-61
2023/01/18 16:56:00;;;;;;;63.48;20.80;;;10.50;74.40;;;;;;1852029;77;21040;-61
2023/01/18 16:58:32;;;;;;;52.40;21.48;;;10.60;74.50;;;;;;1851944;76;21016;-61
2023/01/18 17:01:08;;;;;;;54.18;19.32;;;10.60;74.50;;;;;;1851954;77;21009;-60
2023/01/18 17:03:38;;;;;;;45.45;18.80;;;10.50;74.50;;;;;;1851972;77;21055;-61
2023/01/18 17:06:09;;;;;;;35.78;17.12;;;10.50;74.50;;;;;;1852024;77;21146;-60
2023/01/18 17:08:38;;;;;;;38.92;17.37;;;10.50;74.50;;;;;;1852102;77;21040;-60
2023/01/18 17:11:07;;;;;;;36.05;17.12;;;10.40;74.30;;;;;;1851877;77;21052;-61
2023/01/18 17:13:35;;;;;;;45.17;19.05;;;10.40;74.50;;;;;;1852066;77;21102;-61
2023/01/18 17:16:05;;;;;;;37.23;19.42;;;10.40;74.70;;;;;;1851923;76;21114;-61
2023/01/18 17:18:34;;;;;;;43.68;18.60;;;10.40;74.80;;;;;;1852081;77;21032;-60
2023/01/18 17:21:04;;;;;;;43.55;20.25;;;10.40;74.90;;;;;;1851944;77;21102;-61
2023/01/18 17:23:33;;;;;;;38.53;18.60;;;10.40;75.00;;;;;;1852009;77;21016;-61
2023/01/18 17:26:02;;;;;;;43.92;19.10;;;10.40;75.10;;;;;;1851939;77;21036;-61
2023/01/18 17:28:32;;;;;;;76.80;26.10;;;10.40;75.20;;;;;;1852046;76;21130;-61
2023/01/18 17:31:01;;;;;;;94.30;27.58;;;10.40;75.10;;;;;;1851950;77;21044;-61
2023/01/18 17:33:31;;;;;;;52.03;18.90;;;10.40;75.20;;;;;;1851764;77;21052;-61
2023/01/18 17:36:00;;;;;;;56.18;19.27;;;10.40;75.20;;;;;;1851818;76;21016;-61
2023/01/18 17:38:29;;;;;;;74.27;21.65;;;10.40;75.30;;;;;;1851858;76;21142;-60
2023/01/18 17:40:59;;;;;;;52.80;20.68;;;10.30;75.40;;;;;;1851687;77;21048;-61
2023/01/18 17:43:29;;;;;;;56.02;24.27;;;10.30;75.70;;;;;;1851694;77;21036;-61
2023/01/18 17:45:59;;;;;;;57.03;20.85;;;10.30;75.80;;;;;;1851816;77;21532;-61
2023/01/18 17:48:28;;;;;;;49.45;18.77;;;10.30;75.80;;;;;;1851735;77;21032;-61
2023/01/18 17:50:57;;;;;;;44.73;17.87;;;10.30;75.70;;;;;;1851720;77;21029;-61
2023/01/18 17:53:26;;;;;;;59.63;19.20;;;10.20;75.70;;;;;;1851811;77;21041;-61
2023/01/18 17:55:55;;;;;;;56.53;19.00;;;10.20;76.00;;;;;;1851738;77;21032;-61
2023/01/18 17:58:25;;;;;;;44.98;17.67;;;10.20;76.20;;;;;;1851854;76;21028;-61
2023/01/18 18:00:54;;;;;;;42.05;17.77;;;10.20;76.10;;;;;;1851822;77;21068;-61
2023/01/18 18:03:23;;;;;;;37.63;19.32;;;10.20;76.20;;;;;;1851753;76;21080;-61
2023/01/18 18:05:54;;;;;;;44.63;20.02;;;10.20;76.40;;;;;;1851743;77;21455;-61
2023/01/18 18:08:23;;;;;;;34.70;18.35;;;10.20;76.60;;;;;;1851801;76;21013;-61
2023/01/18 18:10:54;;;;;;;45.10;19.07;;;10.20;76.40;;;;;;1851853;77;21057;-61
2023/01/18 18:13:23;;;;;;;42.05;18.60;;;10.20;76.30;;;;;;1851689;77;21178;-61
2023/01/18 18:15:54;;;;;;;35.55;19.35;;;10.20;76.40;;;;;;1850250;77;21510;-61
2023/01/18 18:18:24;;;;;;;33.28;16.80;;;10.10;76.40;;;;;;1851734;77;21004;-61
2023/01/18 18:21:04;;;;;;;36.68;17.82;;;10.10;76.50;;;;;;1851724;77;21091;-61
2023/01/18 18:23:34;;;;;;;49.77;20.88;;;10.10;76.70;;;;;;1851759;77;21134;-61
2023/01/18 18:26:04;;;;;;;61.42;22.62;;;10.10;76.80;;;;;;1851809;77;21478;-61
2023/01/18 18:28:33;;;;;;;44.00;19.73;;;10.10;76.90;;;;;;1851831;76;21056;-61
2023/01/18 18:31:02;;;;;;;47.03;19.50;;;10.10;76.90;;;;;;1851869;76;21044;-60
2023/01/18 18:33:31;;;;;;;48.48;19.92;;;10.20;77.00;;;;;;1851771;77;21064;-61
2023/01/18 18:36:00;;;;;;;48.65;19.95;;;10.10;77.40;;;;;;1851742;77;21021;-61
2023/01/18 18:38:30;;;;;;;37.95;18.60;;;10.20;77.00;;;;;;1851685;76;21470;-60
2023/01/18 18:41:03;;;;;;;35.65;17.77;;;10.20;77.10;;;;;;1851831;76;21540;-61
2023/01/18 18:43:33;;;;;;;39.88;19.02;;;10.20;77.10;;;;;;1851729;77;21463;-61
2023/01/18 18:46:01;;;;;;;32.20;17.25;;;10.10;77.10;;;;;;1851946;77;21016;-61
2023/01/18 18:48:30;;;;;;;31.27;18.67;;;10.20;77.30;;;;;;1851924;77;21036;-61
2023/01/18 18:50:59;;;;;;;33.50;19.32;;;10.20;77.40;;;;;;1851830;77;21532;-61
2023/01/18 18:53:29;;;;;;;31.68;17.55;;;10.20;77.60;;;;;;1851727;77;21209;-61
2023/01/18 18:56:01;;;;;;;35.90;18.92;;;10.20;77.60;;;;;;1851711;76;21060;-61
2023/01/18 18:58:31;;;;;;;30.37;18.98;;;10.20;77.70;;;;;;1851935;77;21017;-61
2023/01/18 19:01:00;;;;;;;37.48;18.52;;;10.20;77.80;;;;;;1851883;76;21036;-61
2023/01/18 19:03:29;;;;;;;35.43;19.15;;;10.20;78.00;;;;;;1851922;77;21017;-61
2023/01/18 19:05:58;;;;;;;37.10;18.40;;;10.30;78.10;;;;;;1851827;77;21127;-61
2023/01/18 19:08:27;;;;;;;35.90;17.98;;;10.20;78.00;;;;;;1851774;77;21076;-61
2023/01/18 19:10:57;;;;;;;33.38;17.73;;;10.20;78.10;;;;;;1851827;77;21111;-61
2023/01/18 19:13:26;;;;;;;39.18;17.48;;;10.30;78.10;;;;;;1851771;77;21032;-61
2023/01/18 19:15:55;;;;;;;33.45;16.73;;;10.20;78.10;;;;;;1851940;77;21036;-61
2023/01/18 19:18:24;;;;;;;29.23;15.40;;;10.20;78.10;;;;;;1851866;76;21009;-61
2023/01/18 19:20:54;;;;;;;29.45;17.35;;;10.20;78.10;;;;;;1851814;77;21110;-61
2023/01/18 19:23:23;;;;;;;28.12;15.98;;;10.20;77.90;;;;;;1851789;77;21123;-61
2023/01/18 19:25:53;;;;;;;28.85;16.65;;;10.10;78.00;;;;;;1851927;77;21028;-61
2023/01/18 19:28:22;;;;;;;36.45;17.77;;;10.10;78.10;;;;;;1851945;76;21024;-61
2023/01/18 19:30:51;;;;;;;31.97;17.20;;;10.00;78.30;;;;;;1851991;76;21043;-61
2023/01/18 19:33:20;;;;;;;31.07;16.05;;;10.00;78.50;;;;;;1851873;77;21025;-61
2023/01/18 19:35:49;;;;;;;31.50;16.52;;;10.00;78.60;;;;;;1851975;77;21005;-61
2023/01/18 19:38:18;;;;;;;23.57;14.80;;;10.00;78.60;;;;;;1851926;77;21587;-61
2023/01/18 19:40:47;;;;;;;32.23;16.12;;;10.00;78.60;;;;;;1851964;76;21072;-61
2023/01/18 19:43:16;;;;;;;33.10;15.78;;;10.10;78.70;;;;;;1851883;76;21110;-61
2023/01/18 19:45:48;;;;;;;38.70;18.42;;;10.10;78.70;;;;;;1851865;77;21032;-61
2023/01/18 19:48:17;;;;;;;39.75;18.95;;;10.10;78.80;;;;;;1851901;76;21044;-60
2023/01/18 19:50:46;;;;;;;40.50;21.35;;;10.00;78.80;;;;;;1851863;77;21123;-61
2023/01/18 19:53:15;;;;;;;55.10;24.82;;;10.10;78.90;;;;;;1851870;77;21111;-61
2023/01/18 19:55:44;;;;;;;188.32;89.22;;;10.10;79.00;;;;;;1851966;76;21012;-61
2023/01/18 19:58:13;;;;;;;59.10;28.07;;;10.10;78.70;;;;;;1851899;77;21036;-60
2023/01/18 20:00:42;;;;;;;41.18;19.25;;;10.00;78.40;;;;;;1851866;77;20997;-61
2023/01/18 20:03:12;;;;;;;29.80;15.40;;;9.90;78.30;;;;;;1851882;76;21036;-61
2023/01/18 20:05:44;;;;;;;28.73;16.32;;;9.70;78.40;;;;;;1851957;76;21040;-61
2023/01/18 20:08:13;;;;;;;29.27;16.48;;;9.60;78.70;;;;;;1851763;77;21091;-61
2023/01/18 20:10:43;;;;;;;24.43;15.83;;;9.60;79.30;;;;;;1851871;76;21147;-61
2023/01/18 20:13:12;;;;;;;26.77;15.23;;;9.60;79.50;;;;;;1851826;77;21020;-61
2023/01/18 20:15:44;;;;;;;34.10;16.62;;;9.70;79.60;;;;;;1851893;77;21114;-61
2023/01/18 20:18:12;;;;;;;33.70;15.53;;;9.70;79.50;;;;;;1851850;77;21502;-61
2023/01/18 20:20:41;;;;;;;20.45;13.65;;;9.70;79.40;;;;;;1851858;76;21040;-60
2023/01/18 20:23:10;;;;;;;27.70;14.47;;;9.80;79.60;;;;;;1852014;77;21000;-61
2023/01/18 20:25:40;;;;;;;34.15;12.47;;;9.80;79.40;;;;;;1851851;77;21095;-61
2023/01/18 20:28:09;;;;;;;28.65;15.38;;;9.80;79.30;;;;;;1851965;77;21032;-61
2023/01/18 20:30:39;;;;;;;26.17;14.95;;;9.80;79.20;;;;;;1851856;77;21134;-61
2023/01/18 20:33:07;;;;;;;31.73;15.25;;;9.80;79.20;;;;;;1851950;77;21149;-61
2023/01/18 20:35:36;;;;;;;26.12;12.55;;;9.80;79.30;;;;;;1851895;77;22413;-61
2023/01/18 20:38:05;;;;;;;24.37;12.55;;;9.80;79.30;;;;;;1852004;77;21103;-61
2023/01/18 20:40:35;;;;;;;26.50;12.47;;;9.80;79.20;;;;;;1852059;76;21068;-61
2023/01/18 20:43:04;;;;;;;20.23;12.10;;;9.80;79.40;;;;;;1851979;77;21131;-61
2023/01/18 20:45:33;;;;;;;24.70;11.30;;;9.80;79.60;;;;;;1851961;77;21056;-61
2023/01/18 20:48:02;;;;;;;19.85;11.33;;;9.80;79.70;;;;;;1851907;76;21032;-60
2023/01/18 20:50:31;;;;;;;19.42;10.82;;;9.90;79.70;;;;;;1851874;77;21098;-61
2023/01/18 20:53:00;;;;;;;16.42;10.35;;;9.90;79.70;;;;;;1851842;77;21036;-61
2023/01/18 20:55:29;;;;;;;17.27;9.93;;;9.90;79.70;;;;;;1852102;77;21542;-61
2023/01/18 20:57:58;;;;;;;22.00;13.22;;;9.90;79.70;;;;;;1851906;77;21072;-61
2023/01/18 21:00:27;;;;;;;27.30;12.80;;;9.90;79.70;;;;;;1851836;77;21095;-61
2023/01/18 21:02:56;;;;;;;19.23;10.58;;;9.90;79.70;;;;;;1852093;77;21024;-61
2023/01/18 21:05:26;;;;;;;20.68;11.43;;;9.90;79.50;;;;;;1851944;76;21044;-61
2023/01/18 21:07:55;;;;;;;17.20;10.72;;;9.80;79.80;;;;;;1851952;77;21024;-61
2023/01/18 21:10:37;;;;;;;22.35;11.20;;;9.70;79.30;;;;;;1851975;77;21017;-61
2023/01/18 21:12:55;;;;;;;19.20;12.07;;;9.70;79.60;;;;;;1849258;77;21524;-61
2023/01/18 21:15:25;;;;;;;19.05;10.38;;;9.70;79.90;;;;;;1851841;76;21064;-61
2023/01/18 21:17:54;;;;;;;20.45;10.08;;;9.70;79.90;;;;;;1851856;77;21099;-61
2023/01/18 21:20:23;;;;;;;22.22;10.95;;;9.70;79.80;;;;;;1851897;77;21016;-61
2023/01/18 21:22:52;;;;;;;15.13;9.95;;;9.70;79.90;;;;;;1852084;77;21024;-61
2023/01/18 21:25:21;;;;;;;20.30;10.98;;;9.70;80.50;;;;;;1851898;76;21090;-61
2023/01/18 21:27:51;;;;;;;19.87;10.85;;;9.60;80.10;;;;;;1851931;77;21102;-61
2023/01/18 21:30:21;;;;;;;16.25;10.13;;;9.60;80.00;;;;;;1847972;77;21134;-61
2023/01/18 21:32:50;;;;;;;20.02;9.48;;;9.60;80.10;;;;;;1851935;77;21040;-61
2023/01/18 21:35:19;;;;;;;17.60;10.98;;;9.60;80.20;;;;;;1852064;77;21032;-61
2023/01/18 21:37:48;;;;;;;19.30;10.95;;;9.60;80.30;;;;;;1851926;77;21142;-61
2023/01/18 21:40:17;;;;;;;23.52;10.93;;;9.60;80.30;;;;;;1851825;77;21036;-61
2023/01/18 21:48:20;;;;;;;20.05;11.48;;;9.50;80.50;;;;;;1860159;77;21130;-61
2023/01/18 21:56:23;;;;;;;21.40;11.48;;;9.50;80.50;;;;;;1860359;77;21040;-61
2023/01/18 21:58:53;;;;;;;24.15;12.63;;;9.60;80.60;;;;;;1860164;77;21001;-61
2023/01/18 22:01:33;;;;;;;30.32;12.58;;;9.60;80.60;;;;;;1860206;77;21107;-61
2023/01/18 22:06:52;;;;;;;20.60;10.85;;;9.50;80.40;;;;;;1860223;76;21044;-61
2023/01/18 22:09:22;;;;;;;27.87;11.48;;;9.50;80.50;;;;;;1860166;77;21458;-61
2023/01/18 22:11:50;;;;;;;21.35;9.70;;;9.50;81.10;;;;;;1860189;77;21033;-61
2023/01/18 22:14:19;;;;;;;18.87;9.78;;;9.50;80.80;;;;;;1860177;77;21032;-61
2023/01/18 22:16:49;;;;;;;19.50;10.40;;;9.50;80.80;;;;;;1860232;77;21084;-61
2023/01/18 22:19:21;;;;;;;23.05;9.68;;;9.50;80.90;;;;;;1860173;77;21060;-61
2023/01/18 22:21:50;;;;;;;19.57;10.08;;;9.50;80.90;;;;;;1860217;77;21112;-61
2023/01/18 22:24:19;;;;;;;17.15;9.53;;;9.60;81.00;;;;;;1860160;77;21126;-61
2023/01/18 22:26:48;;;;;;;15.75;10.20;;;9.60;81.00;;;;;;1860283;77;21080;-61
2023/01/18 22:29:17;;;;;;;15.93;10.13;;;9.70;81.00;;;;;;1860151;77;21110;-61
2023/01/18 22:31:47;;;;;;;13.95;9.03;;;9.70;80.90;;;;;;1860203;77;21052;-61
2023/01/18 22:34:19;;;;;;;15.72;9.13;;;9.70;80.90;;;;;;1860284;77;21024;-61
2023/01/18 22:36:48;;;;;;;12.23;8.63;;;9.70;81.00;;;;;;1860179;77;21161;-61
2023/01/18 22:39:17;;;;;;;17.65;9.75;;;9.70;81.00;;;;;;1860165;77;20989;-61
2023/01/18 22:41:47;;;;;;;14.58;8.88;;;9.70;81.00;;;;;;1865250;76;21141;-60
2023/01/18 22:44:16;;;;;;;20.62;9.35;;;9.70;81.00;;;;;;1878477;76;21110;-61
2023/01/18 22:46:45;;;;;;;14.23;9.38;;;9.80;81.10;;;;;;1878450;76;21035;-60
2023/01/18 22:49:14;;;;;;;17.42;8.85;;;9.80;81.10;;;;;;1878300;76;21462;-61
2023/01/18 22:51:43;;;;;;;17.45;9.48;;;9.80;81.10;;;;;;1878292;76;21071;-60
2023/01/18 22:54:13;;;;;;;13.80;8.38;;;9.80;81.10;;;;;;1878219;76;21035;-61
2023/01/18 22:56:42;;;;;;;11.35;8.05;;;9.80;81.00;;;;;;1878230;76;21113;-61
2023/01/18 22:59:13;;;;;;;11.60;7.40;;;9.80;80.90;;;;;;1878279;76;21048;-61
2023/01/18 23:01:42;;;;;;;8.73;6.80;;;9.70;80.90;;;;;;1878245;76;21024;-61
2023/01/18 23:04:11;;;;;;;11.15;8.30;;;9.70;80.90;;;;;;1878316;76;21003;-61
2023/01/18 23:06:46;;;;;;;9.15;6.95;;;9.60;80.70;;;;;;1878332;76;21040;-61
2023/01/18 23:09:16;;;;;;;13.35;7.62;;;;;;;;;;1878286;76;21110;-60
2023/01/18 23:11:46;;;;;;;12.33;7.15;;;;;;;;;;1878177;76;21043;-61
2023/01/18 23:19:47;;;;;;;14.13;7.53;;;;;;;;;;1878246;76;21021;-61
2023/01/18 23:22:15;;;;;;;11.68;7.95;;;;;;;;;;1878193;76;21055;-61
2023/01/18 23:24:44;;;;;;;13.22;7.50;;;;;;;;;;1878207;76;21123;-60
2023/01/18 23:27:13;;;;;;;17.65;7.70;;;;;;;;;;1878252;76;21048;-61
2023/01/18 23:29:41;;;;;;;10.98;7.22;;;;;;;;;;1878127;76;21048;-61
2023/01/18 23:32:09;;;;;;;13.50;7.47;;;;;;;;;;1878481;76;21031;-61
2023/01/18 23:34:39;;;;;;;11.50;6.92;;;;;;;;;;1878338;76;21048;-61
2023/01/18 23:37:08;;;;;;;10.78;5.97;;;;;;;;;;1878426;76;21106;-61
2023/01/18 23:56:16;;;;;;;9.98;6.30;;;;;;;;;;1852025;76;21051;-61
2023/01/18 23:58:44;;;;;;;11.08;6.15;;;;;;;;;;1852018;77;20996;-61
